Time;durP1;ratioP1;P1;durP2;ratioP2;P2;SDS_P1;SDS_P2;PMS_P1;PMS_P2;Temp;Humidity;BMP_temperature;BMP_pressure;BME280_temperature;BME280_humidity;BME280_pressure;Samples;Min_cycle;Max_cycle;Signal;HPM_P1;HPM_P2
2023/12/25 00:02:01;;;;;;;6.47;2.90;;;13.00;99.90;;;;;;5077150;28;20024;-84
2023/12/25 00:04:27;;;;;;;6.90;3.53;;;13.00;99.90;;;;;;5077462;28;20115;-84
2023/12/25 00:06:53;;;;;;;6.43;2.85;;;13.10;99.90;;;;;;5076979;28;20159;-83
2023/12/25 00:09:19;;;;;;;5.13;2.58;;;13.00;99.90;;;;;;5076466;28;20033;-83
2023/12/25 00:11:47;;;;;;;7.45;3.15;;;13.10;99.90;;;;;;5060658;28;20028;-82
2023/12/25 00:14:13;;;;;;;8.80;2.95;;;13.00;99.90;;;;;;5060465;28;20437;-84
2023/12/25 00:16:40;;;;;;;6.03;2.83;;;13.10;99.90;;;;;;5077488;28;20063;-84
2023/12/25 00:19:07;;;;;;;4.80;2.63;;;13.00;99.90;;;;;;5077898;28;20116;-83
2023/12/25 00:21:33;;;;;;;6.70;2.88;;;13.10;99.90;;;;;;5095758;28;20464;-83
2023/12/25 00:23:59;;;;;;;5.93;2.40;;;13.00;99.90;;;;;;5077519;28;20031;-83
2023/12/25 00:26:24;;;;;;;5.97;2.83;;;13.00;99.90;;;;;;5046214;28;20032;-83
2023/12/25 00:28:50;;;;;;;7.05;2.45;;;13.00;99.90;;;;;;5091285;28;20095;-82
2023/12/25 00:31:16;;;;;;;5.57;2.70;;;13.00;99.90;;;;;;5102207;28;20016;-83
2023/12/25 00:33:41;;;;;;;6.60;2.38;;;13.00;99.90;;;;;;5082317;28;20027;-83
2023/12/25 00:36:07;;;;;;;4.25;2.45;;;13.00;99.90;;;;;;5074859;28;20384;-83
2023/12/25 00:38:33;;;;;;;6.68;2.67;;;13.00;99.90;;;;;;5103587;28;20032;-83
2023/12/25 00:40:59;;;;;;;6.30;2.40;;;13.00;99.90;;;;;;5081480;28;20020;-84
2023/12/25 00:43:24;;;;;;;5.55;2.28;;;13.00;99.90;;;;;;5060051;28;20024;-83
2023/12/25 00:45:50;;;;;;;3.72;2.20;;;13.10;99.90;;;;;;5063547;28;20032;-83
2023/12/25 00:48:17;;;;;;;6.15;2.53;;;13.10;99.90;;;;;;5060715;28;20035;-83
2023/12/25 00:50:43;;;;;;;5.03;2.42;;;13.10;99.90;;;;;;5056842;28;20029;-83
2023/12/25 00:53:08;;;;;;;5.50;2.80;;;13.00;99.90;;;;;;5055753;28;20396;-84
2023/12/25 00:55:34;;;;;;;3.75;2.80;;;13.10;99.90;;;;;;5072338;28;20036;-83
2023/12/25 00:57:59;;;;;;;4.68;2.92;;;13.00;99.90;;;;;;5076578;28;20024;-84
2023/12/25 01:00:33;;;;;;;4.88;3.20;;;13.00;99.90;;;;;;5076436;28;20036;-83
2023/12/25 01:02:59;;;;;;;8.10;3.60;;;13.00;99.90;;;;;;5042144;28;20036;-84
2023/12/25 01:05:25;;;;;;;4.93;3.50;;;13.00;99.90;;;;;;5056290;28;20333;-84
2023/12/25 01:07:50;;;;;;;6.20;3.28;;;12.90;99.90;;;;;;5041026;28;20052;-84
2023/12/25 01:10:19;;;;;;;6.00;3.08;;;12.90;99.90;;;;;;5059145;28;20441;-84
2023/12/25 01:12:45;;;;;;;5.63;3.28;;;12.90;99.90;;;;;;5042928;28;20024;-84
2023/12/25 01:15:12;;;;;;;5.57;2.70;;;12.90;99.90;;;;;;5059079;28;20524;-85
2023/12/25 01:17:38;;;;;;;7.68;2.78;;;12.90;99.90;;;;;;5075617;28;20016;-84
2023/12/25 01:20:05;;;;;;;7.03;2.78;;;12.90;99.90;;;;;;5059177;28;20492;-83
2023/12/25 01:22:30;;;;;;;6.95;2.38;;;12.90;99.90;;;;;;5064961;28;20538;-84
2023/12/25 01:24:56;;;;;;;7.43;2.33;;;12.80;99.90;;;;;;5060470;28;20116;-84
2023/12/25 01:27:22;;;;;;;9.88;2.72;;;12.80;99.90;;;;;;5042448;28;20052;-84
2023/12/25 01:29:47;;;;;;;9.68;2.50;;;12.70;99.90;;;;;;5075898;28;20016;-85
2023/12/25 01:32:13;;;;;;;7.03;2.30;;;12.70;99.90;;;;;;5058608;28;20032;-85
2023/12/25 01:34:38;;;;;;;12.82;3.67;;;12.70;99.90;;;;;;5059216;28;20024;-85
2023/12/25 01:37:04;;;;;;;11.55;2.78;;;12.70;99.90;;;;;;5065765;28;20476;-84
2023/12/25 01:39:30;;;;;;;8.40;2.10;;;12.60;99.90;;;;;;5076964;28;20521;-85
2023/12/25 01:41:59;;;;;;;10.55;3.13;;;12.60;99.90;;;;;;5079125;28;20471;-83
2023/12/25 01:44:24;;;;;;;11.05;2.65;;;12.60;99.90;;;;;;5044761;28;20123;-85
2023/12/25 01:46:50;;;;;;;9.00;2.80;;;12.60;99.90;;;;;;5022572;28;20131;-84
2023/12/25 01:49:16;;;;;;;10.52;3.10;;;12.60;99.90;;;;;;5045748;28;20420;-84
2023/12/25 01:51:42;;;;;;;6.25;2.03;;;12.60;99.90;;;;;;5075073;28;20088;-83
2023/12/25 01:54:08;;;;;;;7.55;1.73;;;12.60;99.90;;;;;;5060056;28;20024;-84
2023/12/25 01:56:34;;;;;;;7.65;1.50;;;12.60;99.90;;;;;;5075954;28;20437;-83
2023/12/25 01:59:02;;;;;;;3.60;1.38;;;12.50;99.90;;;;;;5059614;28;20510;-83
2023/12/25 02:01:28;;;;;;;4.20;1.10;;;12.40;99.90;;;;;;5101440;28;20107;-83
2023/12/25 02:03:53;;;;;;;3.40;1.00;;;12.30;99.90;;;;;;5097510;28;20424;-84
2023/12/25 02:06:19;;;;;;;3.67;1.05;;;12.20;99.90;;;;;;5110319;28;20115;-84
2023/12/25 02:08:45;;;;;;;2.38;0.70;;;12.00;99.90;;;;;;5097519;28;20039;-85
2023/12/25 02:11:11;;;;;;;4.10;0.80;;;11.90;99.90;;;;;;5118877;28;20043;-85
2023/12/25 02:13:36;;;;;;;2.50;0.88;;;11.90;99.90;;;;;;5080633;28;20365;-86
2023/12/25 02:16:03;;;;;;;2.58;0.73;;;11.70;99.90;;;;;;5042019;28;20435;-86
2023/12/25 02:18:31;;;;;;;3.50;0.85;;;11.70;99.90;;;;;;5042349;28;20119;-85
2023/12/25 02:20:57;;;;;;;4.32;1.05;;;11.70;99.90;;;;;;5079758;28;20023;-84
2023/12/25 02:23:27;;;;;;;2.97;0.90;;;11.70;99.90;;;;;;5095372;28;20168;-83
2023/12/25 02:25:57;;;;;;;2.80;1.13;;;11.70;99.90;;;;;;5076080;28;20035;-83
2023/12/25 02:28:23;;;;;;;5.30;1.17;;;11.70;99.90;;;;;;5078847;28;20036;-83
2023/12/25 02:30:49;;;;;;;5.00;1.20;;;11.80;99.90;;;;;;5087574;28;20277;-83
2023/12/25 02:33:15;;;;;;;8.70;2.05;;;11.80;99.90;;;;;;5100807;28;20370;-84
2023/12/25 02:35:41;;;;;;;9.95;2.55;;;11.90;99.90;;;;;;5079104;28;20028;-84
2023/12/25 02:38:06;;;;;;;10.90;2.53;;;11.90;99.90;;;;;;5082800;28;20050;-83
2023/12/25 02:40:32;;;;;;;12.25;2.80;;;12.00;99.90;;;;;;5079382;28;20035;-83
2023/12/25 02:42:58;;;;;;;14.73;3.00;;;12.00;99.90;;;;;;5079575;28;20020;-83
2023/12/25 02:45:23;;;;;;;14.27;2.85;;;12.10;99.90;;;;;;5071460;28;20032;-84
2023/12/25 02:47:49;;;;;;;13.07;2.67;;;12.20;99.90;;;;;;5117637;28;20032;-84
2023/12/25 02:50:15;;;;;;;13.23;3.20;;;12.20;99.90;;;;;;5077512;28;20056;-84
2023/12/25 02:52:42;;;;;;;9.93;2.58;;;12.20;99.90;;;;;;5078920;28;20053;-84
2023/12/25 02:55:07;;;;;;;10.40;2.55;;;12.30;99.90;;;;;;5078412;28;20020;-84
2023/12/25 02:57:33;;;;;;;13.32;3.17;;;12.30;99.90;;;;;;5078694;28;20476;-84
2023/12/25 02:59:59;;;;;;;10.95;2.45;;;12.30;99.90;;;;;;5045758;28;20032;-83
2023/12/25 03:02:25;;;;;;;12.75;2.78;;;12.30;99.90;;;;;;5096679;28;20503;-84
2023/12/25 03:04:51;;;;;;;13.15;2.70;;;12.40;99.90;;;;;;5057971;28;20068;-85
2023/12/25 03:07:17;;;;;;;10.55;2.60;;;12.40;99.90;;;;;;5081597;28;20142;-84
2023/12/25 03:09:42;;;;;;;11.02;1.92;;;12.40;99.90;;;;;;5060248;28;20024;-84
2023/12/25 03:12:08;;;;;;;8.07;2.17;;;12.40;99.90;;;;;;5078484;28;20107;-83
2023/12/25 03:14:33;;;;;;;8.77;2.28;;;12.40;99.90;;;;;;5078700;28;20024;-84
2023/12/25 03:16:59;;;;;;;13.05;2.67;;;12.40;99.90;;;;;;5047556;28;20027;-84
2023/12/25 03:19:25;;;;;;;10.35;2.70;;;12.40;99.90;;;;;;5087356;28;20031;-84
2023/12/25 03:21:50;;;;;;;12.95;2.70;;;12.40;99.90;;;;;;5064687;28;20058;-84
2023/12/25 03:24:16;;;;;;;14.32;2.60;;;12.40;99.90;;;;;;5065481;28;20038;-84
2023/12/25 03:26:42;;;;;;;11.07;2.15;;;12.40;99.90;;;;;;5080613;28;20110;-83
2023/12/25 03:29:08;;;;;;;13.48;2.60;;;12.40;99.90;;;;;;5078374;28;20515;-83
2023/12/25 03:31:34;;;;;;;13.38;2.75;;;12.50;99.90;;;;;;5077396;28;20150;-84
2023/12/25 03:34:00;;;;;;;12.18;2.20;;;12.40;99.90;;;;;;5078510;28;20383;-83
2023/12/25 03:36:26;;;;;;;11.05;2.67;;;12.40;99.90;;;;;;5078601;28;20032;-83
2023/12/25 03:38:51;;;;;;;14.43;3.20;;;12.40;99.90;;;;;;5117646;27;20018;-83
2023/12/25 03:41:17;;;;;;;11.13;2.75;;;12.50;99.90;;;;;;5120361;27;20028;-82
2023/12/25 03:43:43;;;;;;;10.35;2.45;;;12.40;99.90;;;;;;5103370;28;20019;-83
2023/12/25 03:46:09;;;;;;;10.23;2.33;;;12.40;99.90;;;;;;5103569;28;20062;-83
2023/12/25 03:48:34;;;;;;;10.88;2.17;;;12.40;99.90;;;;;;5072034;28;20167;-83
2023/12/25 03:51:00;;;;;;;7.63;2.22;;;12.40;99.90;;;;;;5083605;28;20546;-83
2023/12/25 03:53:27;;;;;;;11.23;2.55;;;12.40;99.90;;;;;;5098283;28;20016;-83
2023/12/25 03:55:52;;;;;;;9.57;2.28;;;12.40;99.90;;;;;;5064227;28;20031;-84
2023/12/25 03:58:18;;;;;;;8.25;2.50;;;12.40;99.90;;;;;;5077283;28;20139;-83
2023/12/25 04:00:44;;;;;;;10.30;2.40;;;12.40;99.90;;;;;;5061130;28;20486;-84
2023/12/25 04:03:11;;;;;;;10.32;2.28;;;12.40;99.90;;;;;;5077655;28;20024;-83
2023/12/25 04:05:37;;;;;;;8.43;2.22;;;12.40;99.90;;;;;;5076822;28;20028;-84
2023/12/25 04:08:03;;;;;;;10.77;2.35;;;12.40;99.90;;;;;;5059966;28;20044;-84
2023/12/25 04:10:29;;;;;;;13.75;2.92;;;12.40;99.90;;;;;;5057044;28;20029;-84
2023/12/25 04:12:55;;;;;;;12.13;3.20;;;12.40;99.90;;;;;;5058502;28;20081;-84
2023/12/25 04:15:20;;;;;;;11.30;3.05;;;12.40;99.90;;;;;;5095015;28;20035;-84
2023/12/25 04:17:46;;;;;;;11.30;2.38;;;12.40;99.90;;;;;;5044079;28;20020;-84
2023/12/25 04:20:12;;;;;;;10.20;2.20;;;12.40;99.90;;;;;;5076926;28;20028;-84
2023/12/25 04:22:37;;;;;;;11.50;2.70;;;12.50;99.90;;;;;;5060238;28;20031;-84
2023/12/25 04:25:03;;;;;;;8.02;2.05;;;12.40;99.90;;;;;;5094760;28;20341;-84
2023/12/25 04:27:29;;;;;;;9.77;2.70;;;12.40;99.90;;;;;;5051115;28;20036;-84
2023/12/25 04:29:55;;;;;;;11.80;2.80;;;12.40;99.90;;;;;;5095994;28;20034;-84
2023/12/25 04:32:20;;;;;;;11.63;2.28;;;12.40;99.90;;;;;;5043049;28;20174;-84
2023/12/25 04:34:46;;;;;;;7.38;2.50;;;12.40;99.90;;;;;;5094866;28;20024;-84
2023/12/25 04:37:11;;;;;;;13.52;3.00;;;12.50;99.90;;;;;;5060557;28;20064;-84
2023/12/25 04:39:37;;;;;;;10.45;2.15;;;12.40;99.90;;;;;;5078002;28;20532;-84
2023/12/25 04:42:03;;;;;;;9.82;2.42;;;12.50;99.90;;;;;;5073493;28;20024;-84
2023/12/25 04:44:29;;;;;;;8.05;2.33;;;12.50;99.90;;;;;;5079921;28;20028;-84
2023/12/25 04:46:54;;;;;;;8.88;2.33;;;12.50;99.90;;;;;;5061748;28;20373;-83
2023/12/25 04:49:20;;;;;;;7.72;2.25;;;12.50;99.90;;;;;;5077243;28;20036;-83
2023/12/25 04:51:45;;;;;;;9.60;2.20;;;12.50;99.90;;;;;;5056052;28;20423;-84
2023/12/25 04:54:11;;;;;;;12.70;2.65;;;12.50;99.90;;;;;;5056461;28;20423;-84
2023/12/25 04:56:37;;;;;;;9.27;2.03;;;12.50;99.90;;;;;;5077431;28;20478;-84
2023/12/25 04:59:02;;;;;;;5.82;1.83;;;12.50;99.90;;;;;;5079890;28;20066;-84
2023/12/25 05:01:28;;;;;;;8.60;1.90;;;12.50;99.90;;;;;;5092198;28;20035;-84
2023/12/25 05:03:54;;;;;;;8.68;2.08;;;12.50;99.90;;;;;;5080121;28;20371;-83
2023/12/25 05:06:19;;;;;;;9.52;2.15;;;12.60;99.90;;;;;;5096354;28;20032;-84
2023/12/25 05:08:45;;;;;;;8.18;1.90;;;12.60;99.90;;;;;;5080058;28;20429;-84
2023/12/25 05:11:11;;;;;;;5.88;1.83;;;12.50;99.90;;;;;;5066554;28;20027;-84
2023/12/25 05:13:36;;;;;;;7.03;1.40;;;12.50;99.90;;;;;;5070858;27;20075;-83
2023/12/25 05:16:02;;;;;;;8.55;1.67;;;12.50;99.90;;;;;;5097982;28;20016;-83
2023/12/25 05:18:28;;;;;;;4.47;1.20;;;12.50;99.90;;;;;;5064801;28;20031;-83
2023/12/25 05:20:54;;;;;;;6.32;1.40;;;12.50;99.90;;;;;;5081206;28;20009;-83
2023/12/25 05:23:19;;;;;;;6.25;1.50;;;12.50;99.90;;;;;;5087954;28;20029;-83
2023/12/25 05:25:45;;;;;;;5.95;1.23;;;12.60;99.90;;;;;;5059375;28;20039;-82
2023/12/25 05:28:11;;;;;;;7.03;1.67;;;12.50;99.90;;;;;;5076949;28;20040;-83
2023/12/25 05:30:36;;;;;;;8.55;1.77;;;12.50;99.90;;;;;;5059350;28;20058;-82
2023/12/25 05:33:02;;;;;;;4.72;1.40;;;12.60;99.90;;;;;;5093663;28;20024;-82
2023/12/25 05:35:28;;;;;;;7.60;1.30;;;12.60;99.90;;;;;;5058729;28;20036;-83
2023/12/25 05:37:55;;;;;;;7.78;1.83;;;12.60;99.90;;;;;;5075836;28;20039;-84
2023/12/25 05:40:22;;;;;;;5.57;1.40;;;12.60;99.90;;;;;;5075634;28;20032;-83
2023/12/25 05:42:47;;;;;;;3.13;1.27;;;12.60;99.90;;;;;;5058861;28;20028;-83
2023/12/25 05:45:13;;;;;;;4.85;1.77;;;12.60;99.90;;;;;;5075263;28;20065;-84
2023/12/25 05:47:39;;;;;;;5.47;1.55;;;12.60;99.90;;;;;;5075445;28;20422;-84
2023/12/25 05:50:08;;;;;;;3.33;1.10;;;12.50;99.90;;;;;;5075758;28;20028;-84
2023/12/25 05:52:33;;;;;;;3.92;1.20;;;12.50;99.90;;;;;;5093385;28;20115;-83
2023/12/25 05:55:00;;;;;;;6.43;1.80;;;12.60;99.90;;;;;;5059013;28;20052;-84
2023/12/25 05:57:26;;;;;;;6.13;1.60;;;12.50;99.90;;;;;;5075685;28;20447;-84
2023/12/25 05:59:51;;;;;;;4.40;1.00;;;12.50;99.90;;;;;;5058814;28;20062;-84
2023/12/25 06:02:18;;;;;;;4.35;1.33;;;12.50;99.90;;;;;;5094775;28;20433;-84
2023/12/25 06:04:44;;;;;;;4.72;1.38;;;12.60;99.90;;;;;;5107245;28;20035;-84
2023/12/25 06:07:11;;;;;;;3.88;1.15;;;12.60;99.90;;;;;;5048872;28;20057;-84
2023/12/25 06:09:37;;;;;;;7.05;1.80;;;12.60;99.90;;;;;;5035458;28;20128;-84
2023/12/25 06:12:03;;;;;;;8.60;1.40;;;12.60;99.90;;;;;;5051756;28;20033;-84
2023/12/25 06:14:29;;;;;;;4.95;1.80;;;12.60;99.90;;;;;;5035833;28;20025;-84
2023/12/25 06:16:54;;;;;;;4.68;1.48;;;12.60;99.90;;;;;;5051314;28;20029;-84
2023/12/25 06:19:20;;;;;;;5.40;1.45;;;12.60;99.90;;;;;;5051889;28;20052;-84
2023/12/25 06:21:46;;;;;;;5.25;1.20;;;12.60;99.90;;;;;;5033039;28;20036;-84
2023/12/25 06:24:11;;;;;;;4.80;1.30;;;12.60;99.90;;;;;;5071946;28;20117;-83
2023/12/25 06:26:37;;;;;;;3.67;1.15;;;12.50;99.90;;;;;;5026881;28;20164;-83
2023/12/25 06:29:03;;;;;;;5.07;1.15;;;12.50;99.90;;;;;;5042936;28;20158;-84
2023/12/25 06:31:29;;;;;;;4.05;1.10;;;12.50;99.90;;;;;;5051661;28;20017;-85
2023/12/25 06:33:54;;;;;;;3.15;0.77;;;12.50;99.90;;;;;;5050172;28;20392;-84
2023/12/25 06:36:20;;;;;;;2.38;0.80;;;12.50;99.90;;;;;;5044773;28;20036;-84
2023/12/25 06:38:46;;;;;;;3.80;0.90;;;12.50;99.90;;;;;;4999188;28;20389;-84
2023/12/25 06:41:11;;;;;;;3.40;0.93;;;12.40;99.90;;;;;;5034263;28;20037;-85
2023/12/25 06:43:37;;;;;;;1.73;0.73;;;12.50;99.90;;;;;;5052325;28;20032;-85
2023/12/25 06:46:03;;;;;;;3.05;0.80;;;12.40;99.90;;;;;;5055718;28;20067;-84
2023/12/25 06:48:29;;;;;;;1.63;0.65;;;12.40;99.90;;;;;;5044647;28;20055;-84
2023/12/25 06:50:55;;;;;;;3.75;0.63;;;12.40;99.90;;;;;;5076793;28;20035;-83
2023/12/25 06:53:21;;;;;;;2.65;0.70;;;12.30;99.90;;;;;;5076910;28;20021;-84
2023/12/25 06:55:47;;;;;;;2.67;0.80;;;12.30;99.90;;;;;;5059608;28;20092;-84
2023/12/25 06:58:12;;;;;;;2.80;0.80;;;12.30;99.90;;;;;;5076368;28;20021;-84
2023/12/25 07:00:38;;;;;;;2.05;0.52;;;12.30;99.90;;;;;;5056502;28;20488;-83
2023/12/25 07:03:04;;;;;;;2.38;0.60;;;12.30;99.90;;;;;;5061538;28;20032;-84
2023/12/25 07:05:33;;;;;;;2.97;0.80;;;12.20;99.90;;;;;;5015557;28;20033;-85
2023/12/25 07:07:58;;;;;;;1.92;0.80;;;12.20;99.90;;;;;;5046291;28;20056;-84
2023/12/25 07:10:24;;;;;;;1.95;0.47;;;12.20;99.90;;;;;;5073319;28;20033;-84
2023/12/25 07:12:58;;;;;;;2.60;0.75;;;12.10;99.90;;;;;;5054575;28;20427;-84
2023/12/25 07:15:23;;;;;;;2.20;0.73;;;12.20;99.90;;;;;;5057376;28;20035;-84
2023/12/25 07:17:49;;;;;;;1.88;0.52;;;12.10;99.90;;;;;;5074868;28;20032;-84
2023/12/25 07:20:15;;;;;;;3.85;0.77;;;12.10;99.90;;;;;;5057941;28;20032;-84
2023/12/25 07:22:40;;;;;;;1.73;0.50;;;12.10;99.90;;;;;;5041185;28;20082;-83
2023/12/25 07:25:06;;;;;;;1.55;0.38;;;12.20;99.90;;;;;;5074891;28;20027;-84
2023/12/25 07:27:34;;;;;;;1.75;0.40;;;12.20;99.90;;;;;;5058130;28;20025;-84
2023/12/25 07:30:00;;;;;;;2.08;0.68;;;12.20;99.90;;;;;;5074668;28;20488;-84
2023/12/25 07:32:28;;;;;;;2.60;0.75;;;12.20;99.90;;;;;;5041519;28;20048;-85
2023/12/25 07:34:53;;;;;;;2.80;0.70;;;12.20;99.90;;;;;;5074588;28;20490;-84
2023/12/25 07:37:19;;;;;;;3.92;0.73;;;12.10;99.90;;;;;;5057914;28;20062;-84
2023/12/25 07:39:45;;;;;;;1.33;0.60;;;12.10;99.90;;;;;;5057623;28;20056;-84
2023/12/25 07:42:10;;;;;;;2.55;0.75;;;12.20;99.90;;;;;;5057762;28;20031;-84
2023/12/25 07:44:39;;;;;;;2.03;0.75;;;12.10;99.90;;;;;;5057912;28;20093;-84
2023/12/25 07:47:06;;;;;;;1.60;0.55;;;12.10;99.90;;;;;;5074175;28;20027;-89
2023/12/25 07:49:34;;;;;;;2.00;0.57;;;12.10;99.90;;;;;;5075921;28;20145;-88
2023/12/25 07:52:00;;;;;;;2.20;0.80;;;12.10;99.90;;;;;;5075290;28;20028;-87
2023/12/25 07:54:28;;;;;;;3.40;0.77;;;12.10;99.90;;;;;;5079047;28;20024;-86
2023/12/25 07:56:54;;;;;;;3.80;0.82;;;12.10;99.90;;;;;;5079666;28;20028;-86
2023/12/25 07:59:24;;;;;;;2.53;0.70;;;12.10;99.90;;;;;;5058297;28;20119;-86
2023/12/25 08:01:50;;;;;;;1.63;0.65;;;12.20;99.90;;;;;;5074047;28;20012;-87
2023/12/25 08:04:19;;;;;;;3.20;1.10;;;12.20;99.90;;;;;;5058213;28;20020;-86
2023/12/25 08:06:46;;;;;;;1.73;0.50;;;12.20;99.90;;;;;;5078931;28;20501;-86
2023/12/25 08:09:34;;;;;;;2.08;0.63;;;12.20;99.90;;;;;;5103659;28;20427;-86
2023/12/25 08:12:00;;;;;;;2.67;0.73;;;12.20;99.90;;;;;;5072395;28;20348;-87
2023/12/25 08:14:33;;;;;;;2.75;0.80;;;12.20;99.90;;;;;;5064337;28;20024;-85
2023/12/25 08:16:59;;;;;;;3.55;1.15;;;12.20;99.90;;;;;;5089593;28;20040;-85
2023/12/25 08:19:24;;;;;;;3.80;1.15;;;12.20;99.90;;;;;;5080435;28;20487;-87
2023/12/25 08:21:50;;;;;;;2.10;0.80;;;12.20;99.90;;;;;;5087034;28;20030;-86
2023/12/25 08:24:16;;;;;;;2.00;0.60;;;12.20;99.90;;;;;;5086354;28;20024;-86
2023/12/25 08:26:44;;;;;;;2.78;0.82;;;12.30;99.90;;;;;;5101934;28;20023;-86
2023/12/25 08:29:15;;;;;;;6.22;1.35;;;12.30;99.90;;;;;;5108904;27;20031;-86
2023/12/25 08:31:46;;;;;;;1.85;0.93;;;12.30;99.90;;;;;;5106362;28;20053;-86
2023/12/25 08:34:12;;;;;;;3.42;1.10;;;12.20;99.90;;;;;;5079514;28;20030;-86
2023/12/25 08:36:37;;;;;;;3.30;0.80;;;12.20;99.90;;;;;;5084176;28;20027;-87
2023/12/25 08:39:04;;;;;;;5.78;0.98;;;12.20;99.90;;;;;;5089165;28;20024;-86
2023/12/25 08:41:33;;;;;;;3.17;0.98;;;12.20;99.90;;;;;;5101136;28;20057;-86
2023/12/25 08:43:59;;;;;;;2.47;0.65;;;12.20;99.90;;;;;;5077115;28;20028;-88
2023/12/25 08:46:27;;;;;;;4.32;0.90;;;12.20;99.90;;;;;;5076838;28;20013;-87
2023/12/25 08:48:53;;;;;;;2.42;0.70;;;12.20;99.90;;;;;;5094070;28;20081;-87
2023/12/25 08:51:18;;;;;;;3.38;0.90;;;12.20;99.90;;;;;;5076664;28;20459;-87
2023/12/25 08:53:47;;;;;;;3.88;0.90;;;12.20;99.90;;;;;;5059558;28;20111;-86
2023/12/25 08:56:22;;;;;;;3.70;1.25;;;12.20;99.90;;;;;;5076950;28;20030;-88
2023/12/25 08:58:48;;;;;;;4.45;1.10;;;12.20;99.90;;;;;;5076576;28;20031;-87
2023/12/25 09:01:13;;;;;;;1.92;0.90;;;12.20;99.90;;;;;;5096303;28;20028;-87
2023/12/25 09:03:39;;;;;;;1.52;0.75;;;12.20;99.90;;;;;;5114667;28;20066;-87
2023/12/25 09:06:06;;;;;;;3.17;0.90;;;12.30;99.90;;;;;;5079309;28;20031;-86
2023/12/25 09:08:35;;;;;;;2.35;0.90;;;12.30;99.90;;;;;;5072925;28;20101;-87
2023/12/25 09:11:00;;;;;;;3.20;0.70;;;12.40;99.90;;;;;;5072798;28;20025;-86
2023/12/25 09:13:26;;;;;;;3.67;0.73;;;12.40;99.90;;;;;;5073995;28;20032;-86
2023/12/25 09:15:52;;;;;;;1.70;0.80;;;12.40;99.90;;;;;;5095557;28;20031;-83
2023/12/25 09:18:18;;;;;;;1.45;0.70;;;12.40;99.90;;;;;;5088772;28;20025;-86
2023/12/25 09:20:43;;;;;;;1.80;0.70;;;12.40;99.90;;;;;;5089575;28;20107;-86
2023/12/25 09:23:12;;;;;;;2.15;0.70;;;12.40;99.90;;;;;;5114178;28;20069;-88
2023/12/25 09:25:40;;;;;;;2.55;0.88;;;12.40;99.90;;;;;;5102139;28;20027;-89
2023/12/25 09:28:11;;;;;;;4.53;0.85;;;12.40;99.90;;;;;;5059368;28;20024;-87
2023/12/25 09:30:38;;;;;;;1.05;0.60;;;12.40;99.90;;;;;;5075891;28;20090;-88
2023/12/25 09:33:03;;;;;;;2.25;0.60;;;12.40;99.90;;;;;;5075743;28;20556;-86
2023/12/25 09:35:29;;;;;;;2.08;0.77;;;12.40;99.90;;;;;;5059322;28;20032;-86
2023/12/25 09:37:55;;;;;;;1.75;0.60;;;12.40;99.90;;;;;;5083657;28;20386;-85
2023/12/25 09:40:21;;;;;;;1.50;0.52;;;12.40;99.90;;;;;;5082021;28;20036;-88
2023/12/25 09:42:50;;;;;;;2.17;0.55;;;12.40;99.90;;;;;;5099874;28;20050;-88
2023/12/25 09:45:20;;;;;;;3.65;0.80;;;12.40;99.90;;;;;;5080425;28;20020;-87
2023/12/25 09:47:47;;;;;;;0.60;0.50;;;12.40;99.90;;;;;;5062021;28;20031;-87
2023/12/25 09:50:17;;;;;;;1.77;0.77;;;12.30;99.90;;;;;;5058790;28;20468;-87
2023/12/25 09:52:42;;;;;;;1.00;0.40;;;12.40;99.90;;;;;;5097203;28;20039;-87
2023/12/25 09:55:11;;;;;;;2.45;0.90;;;12.40;99.90;;;;;;5080535;28;20388;-87
2023/12/25 09:57:38;;;;;;;3.63;1.00;;;12.40;99.90;;;;;;5080471;28;20028;-86
2023/12/25 10:00:06;;;;;;;2.00;0.70;;;12.50;99.90;;;;;;5083704;28;20024;-86
2023/12/25 10:02:36;;;;;;;1.55;0.77;;;12.50;99.90;;;;;;5073352;28;20045;-85
2023/12/25 10:05:06;;;;;;;1.00;0.50;;;12.50;99.90;;;;;;5099874;28;20046;-85
2023/12/25 10:07:32;;;;;;;2.03;0.60;;;12.50;99.90;;;;;;5111195;28;20038;-86
2023/12/25 10:09:58;;;;;;;2.05;0.80;;;12.50;99.90;;;;;;5120625;27;20019;-85
2023/12/25 10:12:25;;;;;;;2.38;0.70;;;12.60;99.90;;;;;;5083429;28;20027;-86
2023/12/25 10:14:51;;;;;;;1.50;0.47;;;12.60;99.90;;;;;;5059469;28;20024;-87
2023/12/25 10:17:17;;;;;;;1.98;0.70;;;12.60;99.90;;;;;;5074383;28;20020;-87
2023/12/25 10:20:04;;;;;;;2.05;0.70;;;12.60;99.90;;;;;;5074002;28;20384;-86
2023/12/25 10:22:32;;;;;;;2.63;0.77;;;12.60;99.90;;;;;;5089611;28;20478;-85
2023/12/25 10:25:09;;;;;;;3.67;0.80;;;12.50;99.90;;;;;;5096919;28;20024;-86
2023/12/25 10:27:37;;;;;;;1.50;0.50;;;12.50;99.90;;;;;;5084385;28;20028;-87
2023/12/25 10:30:15;;;;;;;2.17;0.80;;;12.50;99.90;;;;;;5084604;28;20490;-86
2023/12/25 10:32:41;;;;;;;1.33;0.50;;;12.50;99.90;;;;;;5078705;28;20024;-86
2023/12/25 10:35:24;;;;;;;2.50;0.57;;;12.50;99.90;;;;;;5082513;28;20035;-87
2023/12/25 10:37:50;;;;;;;1.63;0.68;;;12.50;99.90;;;;;;5100440;28;20107;-87
2023/12/25 10:40:21;;;;;;;2.83;0.70;;;12.50;99.90;;;;;;5081133;28;20111;-87
2023/12/25 10:42:50;;;;;;;2.08;0.75;;;12.50;99.90;;;;;;5088730;28;20027;-88
2023/12/25 10:45:32;;;;;;;;;;;;;;;;;;;;;
2023/12/25 10:48:02;;;;;;;2.55;0.73;;;12.40;99.90;;;;;;5104745;28;20042;-86
2023/12/25 10:50:30;;;;;;;3.55;0.82;;;12.40;99.90;;;;;;5077619;28;20024;-87
2023/12/25 10:53:01;;;;;;;3.47;1.23;;;12.50;99.90;;;;;;5087613;28;20023;-89
2023/12/25 10:55:41;;;;;;;2.17;0.82;;;12.50;99.90;;;;;;5089517;28;20024;-87
2023/12/25 10:58:11;;;;;;;3.67;0.90;;;12.50;99.90;;;;;;5075672;28;20034;-85
2023/12/25 11:00:50;;;;;;;1.90;0.70;;;12.50;99.90;;;;;;5064570;28;20388;-87
2023/12/25 11:03:19;;;;;;;2.65;0.90;;;12.50;99.90;;;;;;5084075;28;20077;-86
2023/12/25 11:05:45;;;;;;;1.35;0.70;;;12.50;99.90;;;;;;5080938;28;20026;-85
2023/12/25 11:08:15;;;;;;;1.45;0.73;;;12.50;99.90;;;;;;5085229;28;20126;-86
2023/12/25 11:10:41;;;;;;;2.15;0.60;;;12.50;99.90;;;;;;5078004;28;20028;-87
2023/12/25 11:13:07;;;;;;;3.65;1.00;;;12.50;99.90;;;;;;5083847;28;20027;-86
2023/12/25 11:15:40;;;;;;;2.10;0.68;;;12.50;99.90;;;;;;5063770;28;20130;-85
2023/12/25 11:18:22;;;;;;;1.88;0.70;;;12.40;99.90;;;;;;5085764;28;20012;-86
2023/12/25 11:21:08;;;;;;;2.45;0.60;;;12.40;99.90;;;;;;5088619;28;20092;-87
2023/12/25 11:23:39;;;;;;;4.75;0.93;;;12.40;99.90;;;;;;5099891;28;20035;-89
2023/12/25 11:26:12;;;;;;;2.92;0.60;;;12.40;99.90;;;;;;5081614;28;20024;-87
2023/12/25 11:28:42;;;;;;;2.72;0.65;;;12.40;99.90;;;;;;5084860;28;20019;-86
2023/12/25 11:31:15;;;;;;;5.45;0.95;;;12.40;99.90;;;;;;5085545;28;20036;-85
2023/12/25 11:33:51;;;;;;;3.38;0.93;;;12.40;99.90;;;;;;5085032;28;20040;-85
2023/12/25 11:36:17;;;;;;;2.55;0.90;;;12.40;99.90;;;;;;5085055;28;20049;-86
2023/12/25 11:38:47;;;;;;;2.92;0.80;;;12.40;99.90;;;;;;5111799;28;20012;-85
2023/12/25 11:41:18;;;;;;;3.97;0.70;;;12.40;99.90;;;;;;5100272;27;20016;-87
2023/12/25 11:43:46;;;;;;;3.53;1.25;;;12.40;99.90;;;;;;5112836;28;20079;-86
2023/12/25 11:46:19;;;;;;;2.53;0.90;;;12.40;99.90;;;;;;5095440;28;20032;-87
2023/12/25 11:49:01;;;;;;;3.78;0.80;;;12.40;99.90;;;;;;5075973;28;20550;-87
2023/12/25 11:51:29;;;;;;;3.50;0.95;;;12.40;99.90;;;;;;5079477;28;20024;-87
2023/12/25 11:54:09;;;;;;;3.75;1.00;;;12.30;99.90;;;;;;5100376;28;20008;-88
2023/12/25 11:56:40;;;;;;;3.22;0.93;;;12.30;99.90;;;;;;5068795;28;20051;-88
2023/12/25 11:59:09;;;;;;;2.40;0.70;;;12.30;99.90;;;;;;5087519;28;20482;-90
2023/12/25 12:01:35;;;;;;;2.72;0.70;;;12.30;99.90;;;;;;5088809;28;20020;-87
2023/12/25 12:04:04;;;;;;;2.15;0.60;;;12.30;99.90;;;;;;5085064;28;20034;-88
2023/12/25 12:06:30;;;;;;;1.88;0.60;;;12.30;99.90;;;;;;5082538;28;20028;-84
2023/12/25 12:08:59;;;;;;;3.90;0.90;;;12.30;99.90;;;;;;5079829;28;20410;-85
2023/12/25 12:11:25;;;;;;;3.30;0.90;;;12.30;99.90;;;;;;5077399;28;20093;-86
2023/12/25 12:13:52;;;;;;;3.60;0.77;;;12.30;99.90;;;;;;5073400;28;20112;-86
2023/12/25 12:16:17;;;;;;;2.50;0.60;;;12.30;99.90;;;;;;5060073;28;20029;-86
2023/12/25 12:19:02;;;;;;;;;;;;;;;;;;;;;
2023/12/25 12:21:28;;;;;;;1.02;0.60;;;12.30;99.90;;;;;;5077584;28;20385;-86
2023/12/25 12:23:54;;;;;;;3.17;0.70;;;12.30;99.90;;;;;;5085372;28;20119;-87
2023/12/25 12:26:19;;;;;;;2.80;1.13;;;12.30;99.90;;;;;;5076524;28;20029;-85
2023/12/25 12:28:45;;;;;;;1.95;0.77;;;12.20;99.90;;;;;;5074239;28;20112;-85
2023/12/25 12:31:12;;;;;;;2.92;1.00;;;12.30;99.90;;;;;;5077293;28;20082;-86
2023/12/25 12:33:40;;;;;;;2.83;0.70;;;12.30;99.90;;;;;;5074604;28;20376;-86
2023/12/25 12:36:06;;;;;;;1.85;0.60;;;12.30;99.90;;;;;;5065513;28;20070;-86
2023/12/25 12:38:32;;;;;;;2.00;0.80;;;12.40;99.90;;;;;;5061631;28;20028;-87
2023/12/25 12:40:59;;;;;;;1.98;0.70;;;12.40;99.90;;;;;;5066627;28;20376;-86
2023/12/25 12:43:24;;;;;;;2.63;0.70;;;12.40;99.90;;;;;;5076950;28;20025;-86
2023/12/25 12:45:55;;;;;;;1.98;0.80;;;12.40;99.90;;;;;;5061806;28;20021;-87
2023/12/25 12:48:20;;;;;;;1.75;0.70;;;12.40;99.90;;;;;;5075746;28;20028;-85